ウィニペグ の空港の天気 - METARとTAF

ウィニペグ国際空港 ( CYWG / YWG ) - カナダ マニトバ州ウィニペグ
飛行場実況気象(Metar)
観測時間11/30 11:16 CST (11/30 17:16 UTC)
風向・風速北西 9m/s
視程10km以上
天気現象低い地吹雪
少しの雲 雲底高度 270m
全天の8割程度の雲 雲底高度 610m
気温-15℃
湿度78%
気圧1021.3hPa
METARCYWG 301716Z 31018KT 15SM DRSN FEW009 BKN020 M15/M18 A3009 RMK ST2SC6 VIS LWR E SLP213
過去の天気等 Google飛行場航空写真 Wunderground天気予報

過去48時間のMETAR

飛行場予報(TAF)
発表時間: 11/30 09:55 CST (11/30 15:55 UTC)
予報対象時間: 30日9時 CST ~ 1日6時 CST
風向・風速北西 11m/s 瞬間風速 16m/s
視程10km以上
全天の8割程度の雲 雲底高度 910m
30日9時 CST ~ 30日13時 CST に一時的に
30日13時 CST から
風向・風速北西 9m/s
視程10km以上
全天の4割程度の雲 雲底高度 1220m
30日13時 CST ~ 30日20時 CST に一時的に
全天の8割程度の雲 雲底高度 910m
30日16時 CST ~ 30日18時 CST に徐々に
風向・風速北西 5m/s
30日20時 CST から
風向・風速不定 2m/s
視程10km以上
全天の4割程度の雲 雲底高度 760m
全天の4割程度の雲 雲底高度 4570m
1日3時 CST から
風向・風速南東 5m/s
視程10km以上
全天の4割程度の雲 雲底高度 2440m
全天の8割程度の雲 雲底高度 3660m
TAF AMD CYWG 301555Z 3015/0112 31022G32KT P6SM BKN030
TEMPO 3015/3019 1 1/2SM -SN BLSN OVC015
FM301900 31018KT P6SM SCT040
TEMPO 3019/0102 BKN030
BECMG 3022/3024 31010KT
FM010200 VRB03KT P6SM SCT025 SCT150
FM010900 14010KT P6SM SCT080 BKN120 RMK NXT FCST BY 301800Z